This is the latest recevied weather packets stored in our database for station/object KD9IXX-13. If no packets are shown the sender has not sent any weather packets the latest 10 day(s).
| Time | Temp. | Humidity | Pressure | Rain* | Wind** | Luminosity | Snow |
|---|---|---|---|---|---|---|---|
| 1787847302 | 26.67° C | 68% | 1018.3 hPa | 0 mm | - | 677 W/m² | - |
| 1787847001 | 25.56° C | 68% | 1018.2 hPa | 0 mm | - | 696 W/m² | - |
| 1787846702 | 26.11° C | 68% | 1018.4 hPa | 0 mm | - | 204 W/m² | - |
| 1787846402 | 25° C | 69% | 1018.4 hPa | 0 mm | - | 687 W/m² | - |
| 1787845202 | 25.56° C | 70% | 1018.4 hPa | 0 mm | - | 670 W/m² | - |
| 1787844902 | 25.56° C | 68% | 1018.1 hPa | 0 mm | - | 686 W/m² | - |
| 1787844302 | 25° C | 70% | 1017.9 hPa | 0 mm | - | 647 W/m² | - |
| 1787842802 | 25° C | 72% | 1017.8 hPa | 0 mm | - | 632 W/m² | - |
| 1787842502 | 25° C | 75% | 1017.9 hPa | 0 mm | - | 602 W/m² | - |
| 1787841902 | 24.44° C | 75% | 1017.7 hPa | 0 mm | - | 592 W/m² | - |
| 1787841302 | 24.44° C | 76% | 1017.6 hPa | 0 mm | - | 583 W/m² | - |
| 1787841002 | 24.44° C | 74% | 1017.4 hPa | 0 mm | - | 560 W/m² | - |
| 1787840402 | 23.89° C | 78% | 1017.6 hPa | 0 mm | - | 514 W/m² | - |
| 1787840102 | 23.89° C | 76% | 1017.4 hPa | 0 mm | - | 520 W/m² | - |
| 1787839802 | 23.89° C | 77% | 1017.6 hPa | 0 mm | - | 499 W/m² | - |
| 1787839502 | 23.89° C | 77% | 1017.7 hPa | 0 mm | - | 441 W/m² | - |
| 1787838602 | 23.33° C | 80% | 1017.8 hPa | 0 mm | - | 377 W/m² | - |
| 1787837702 | 21.67° C | 86% | 1017.6 hPa | 0 mm | - | 312 W/m² | - |
| 1787836802 | 21.11° C | 88% | 1017.6 hPa | 0 mm | - | 258 W/m² | - |
| 1787835902 | 20° C | 90% | 1017.4 hPa | 0 mm | - | 209 W/m² | - |
| 1787835602 | 20° C | 91% | 1017.2 hPa | 0 mm | - | 178 W/m² | - |
| 1787833802 | 18.33° C | 97% | 1017.1 hPa | 0 mm | - | 45 W/m² | - |
| 1787833501 | 18.33° C | 98% | 1017.1 hPa | 0 mm | - | 37 W/m² | - |
| 1787833202 | 17.78° C | 99% | 1017 hPa | 0 mm | - | 32 W/m² | - |
| 1787832902 | 17.78° C | 99% | 1017 hPa | 0 mm | - | 32 W/m² | - |
* Rain latest hour (hover to see other rain measurements)
** Current wind speed in m/s (hover to see current wind gust speed)